Clifton Forge, VA (24422)

3:46 PM EDT on September 18, 2014 (GMT -0400)
Alleghany Street | Change Station
CLOSE
Current Station
Personal Weather Station
Location: Clifton Forge, VA
Elevation: 1175 ft
Nearby Weather Stations

Elev 1175 ft 37.81 °N, 79.84 °W | Updated 23 minutes ago

Mostly Cloudy
Mostly Cloudy
79.0 °F
Feels Like 80 °F
N
3.7
Wind Variable Wind from WSW

Today
High -- | Low -- °F
--% Chance of Precip.
Yesterday
High -- | Low -- °F
Precip. -- in
7:03 AM 7:22 PM
Waning Crescent, 25% visible
Pressure 30.05 in
Visibility 10.0 miles
Clouds Scattered Clouds 4200 ft
Mostly Cloudy 5000 ft
Mostly Cloudy 5500 ft
Heat Index 80 °F
Dew Point 56 °F
Humidity 45%
Rainfall 0.00 in
Snow Depth Not available.
UV 3 out of 12
Pollen 5.80 out of 12
Air Quality Not available.
Flu Activity Not available.
METAR KLWB 181935Z AUTO 20003KT 10SM SCT042 BKN050 BKN055 22/10 A3005 RMK AO2 T02160099

More Conditions Fewer Conditions

Pressure 30.05 in
Visibility 10.0 miles
Clouds Scattered Clouds 4200 ft
Mostly Cloudy 5000 ft
Mostly Cloudy 5500 ft
Heat Index 80 °F
Dew Point 56 °F
Humidity 45%
Rainfall 0.00 in
Snow Depth Not available.
UV 3 out of 12
Pollen 5.80 out of 12
Air Quality Not available.
Flu Activity Not available.
METAR KLWB 181935Z AUTO 20003KT 10SM SCT042 BKN050 BKN055 22/10 A3005 RMK AO2 T02160099

More Conditions Fewer Conditions

10-Day Weather Forecast

Almanac

Astronomy

Sep. 18, 2014 Rise Set
Actual Time 7:03 AM EDT 7:22 PM EDT
Civil Twilight 6:37 AM EDT 7:48 PM EDT
Nautical Twilight 6:06 AM EDT 8:19 PM EDT
Astronomical Twilight 5:35 AM EDT 8:50 PM EDT
Moon 1:58 AM EDT 4:08 PM EDT
Length of Visible Light 13h 11m
Length of Day
12h 18m
Tomorrow will be 2m 25s shorter.
Waning Crescent, 25% of the Moon is Illuminated
Today
Waning Crescent
Sep 24
New
Oct 1
First Quarter
Oct 8
Full
Oct 15
Last Quarter

Today's Extremes

State Highs State Lows

Community

WunderPhotos

Upload Photos

1,754,421 photos uploaded!

WunderBlogs® & News

By Dr. Jeff Masters
Director of Meteorology, Weather Underground
By Kari Strenfel
Meteorologist, Weather Underground
By Christopher C. Burt
Weather Historian, Weather Underground
September 18, 2014
September 18, 2014
September 18, 2014

Nearby

Snow Depth

Station Depth Elevation
No new snow has been reported.

Earthquake Activity

City Distance Mag. Time & Date
No recent earthquake activity has been reported nearby.
Minimum magnitude displayed is 2.5.

Coastal Water Temperatures

Place Temperature
No Stations Reporting

Nearby Weather Stations